Data for 12/16/2007

Time Sea-Level Adjusted Pressure Absolute Pressure Temperature Relative Humidity Dew Point   
(mb) (inHg) (mb) (inHg) (C) (F) (%) (C) (F)
00:05 1017 30.03 846 24.98 -2.4 27.7 57 -9.7 14.5
00:10 1017 30.03 846 24.98 -2.4 27.7 56 -10 14.1
00:15 1017 30.03 846 24.98 -2.2 28 56 -9.9 14.1
00:20 1017 30.03 846 24.98 -2.2 28.1 57 -9.6 14.7
00:25 1017 30.03 846 24.98 -2.2 28 57 -9.7 14.5
00:30 1017 30.03 846 24.98 -2.3 27.9 57 -9.6 14.7
00:35 1017 30.03 846 24.98 -2.3 27.8 58 -9.6 14.8
00:40 1017 30.03 846 24.98 -2.5 27.6 59 -9.4 15.1
00:45 1017 30.03 846 24.98 -2.6 27.3 59 -9.5 14.9
00:50 1017 30.03 846 24.98 -2.7 27.1 59 -9.6 14.8
00:55 1017 30.03 846 24.98 -2.8 26.9 59 -9.7 14.5
01:00 1017 30.03 846 24.98 -2.9 26.8 60 -9.7 14.6
01:05 1017 30.03 846 24.98 -3 26.6 59 -9.8 14.3
01:10 1017 30.03 846 24.98 -3 26.6 59 -10 14.1
01:15 1017 30.03 846 24.98 -3.1 26.4 59 -9.9 14.1
01:20 1017 30.03 846 24.98 -3.1 26.4 59 -10 13.9
01:25 1017 30.03 846 24.98 -3.1 26.4 59 -10 14.1
01:30 1016 30 846 24.98 -3.1 26.3 59 -10 14
01:35 1016 30 846 24.98 -3.2 26.2 59 -10.1 13.9
01:40 1016 30 846 24.98 -3.2 26.2 59 -10.1 13.7
01:45 1017 30.03 846 24.98 -3.3 26.1 59 -10.1 13.8
01:50 1017 30.03 846 24.98 -3.4 25.8 60 -10.1 13.8
01:55 1017 30.03 846 24.98 -3.5 25.8 60 -10.1 13.8
02:00 1017 30.03 846 24.98 -3.5 25.7 60 -10.1 13.7
02:05 1017 30.03 846 24.98 -3.4 25.9 60 -10 13.9
02:10 1017 30.03 846 24.98 -3.3 26 59 -10.1 13.8
02:15 1017 30.03 846 24.98 -3.3 26.1 60 -9.9 14.1
02:20 1017 30.03 846 24.98 -3.2 26.2 60 -10 14
02:25 1017 30.03 846 24.98 -3 26.6 59 -10 14.1
02:30 1017 30.03 846 24.98 -2.8 26.9 58 -10 14
02:35 1017 30.03 846 24.98 -2.8 27 59 -9.7 14.6
02:40 1017 30.03 846 24.98 -2.9 26.8 60 -9.6 14.7
02:45 1017 30.03 846 24.98 -3 26.6 60 -9.6 14.6
02:50 1017 30.03 846 24.98 -3 26.7 59 -9.8 14.4
02:55 1017 30.03 846 24.98 -2.7 27.1 58 -9.9 14.2
03:00 1017 30.03 846 24.98 -2.6 27.3 58 -9.9 14.3
03:05 1017 30.03 847 25.01 -2.5 27.5 57 -9.8 14.3
03:10 1017 30.03 847 25.01 -2.5 27.6 58 -9.7 14.5
03:15 1017 30.03 847 25.01 -2.5 27.6 57 -9.9 14.1
03:20 1018 30.06 847 25.01 -2.5 27.4 57 -9.9 14.1
03:25 1018 30.06 847 25.01 -2.5 27.4 58 -9.8 14.4
03:30 1018 30.06 847 25.01 -2.5 27.5 57 -10 14.1
03:35 1018 30.06 847 25.01 -2.5 27.6 57 -9.8 14.3
03:40 1018 30.06 847 25.01 -2.5 27.4 58 -9.7 14.5
03:45 1018 30.06 847 25.01 -2.7 27.1 59 -9.6 14.7
03:50 1018 30.06 847 25.01 -2.8 26.9 59 -9.7 14.6
03:55 1018 30.06 847 25.01 -2.9 26.9 60 -9.7 14.6
04:00 1018 30.06 847 25.01 -2.9 26.8 60 -9.5 14.9
04:05 1018 30.06 847 25.01 -2.9 26.8 59 -9.8 14.3
04:10 1018 30.06 847 25.01 -2.9 26.8 60 -9.7 14.6
04:15 1018 30.06 847 25.01 -3 26.6 60 -9.8 14.4
04:20 1018 30.06 847 25.01 -3.1 26.4 60 -9.9 14.2
04:25 1018 30.06 847 25.01 -3 26.5 59 -9.9 14.1
04:30 1018 30.06 847 25.01 -3.1 26.5 60 -9.8 14.4
04:35 1017 30.03 847 25.01 -3.2 26.3 60 -9.8 14.3
04:40 1017 30.03 847 25.01 -3.2 26.2 58 -10.3 13.5
04:45 1017 30.03 847 25.01 -3.1 26.4 60 -9.9 14.2
04:50 1017 30.03 847 25.01 -3.3 26.1 61 -9.7 14.5
04:55 1017 30.03 847 25.01 -3.4 25.9 60 -10.1 13.9
05:00 1017 30.03 847 25.01 -3.3 26 61 -9.8 14.4
05:05 1017 30.03 847 25.01 -3.4 25.9 61 -9.9 14.3
05:10 1017 30.03 847 25.01 -3.3 26.1 61 -9.9 14.3
05:15 1017 30.03 847 25.01 -3.3 26 61 -9.9 14.2
05:20 1017 30.03 847 25.01 -3.5 25.8 61 -9.9 14.1
05:25 1017 30.03 846 24.98 -3.6 25.5 61 -10.1 13.8
05:30 1017 30.03 846 24.98 -3.6 25.5 62 -9.9 14.1
05:35 1017 30.03 846 24.98 -3.8 25.2 62 -10 14
05:40 1017 30.03 846 24.98 -3.7 25.3 62 -10.1 13.9
05:45 1017 30.03 846 24.98 -3.7 25.3 63 -9.8 14.4
05:50 1017 30.03 846 24.98 -3.9 25 65 -9.5 14.8
05:55 1017 30.03 846 24.98 -4.1 24.6 65 -9.8 14.4
06:00 1017 30.03 846 24.98 -4.3 24.3 65 -10 14.1
06:05 1017 30.03 846 24.98 -4.2 24.4 64 -10 13.9
06:10 1017 30.03 846 24.98 -4.1 24.6 64 -9.9 14.2
06:15 1017 30.03 846 24.98 -3.9 25 63 -10 14
06:20 1017 30.03 846 24.98 -3.6 25.6 60 -10.2 13.7
06:25 1017 30.03 846 24.98 -3.6 25.6 60 -10.2 13.7
06:30 1017 30.03 846 24.98 -3.5 25.7 60 -10.2 13.7
06:35 1017 30.03 846 24.98 -3.4 25.8 60 -10.2 13.7
06:40 1017 30.03 846 24.98 -3.6 25.4 63 -9.6 14.7
06:45 1017 30.03 846 24.98 -4.2 24.4 67 -9.6 14.8
06:50 1017 30.03 846 24.98 -4.7 23.5 68 -9.8 14.4
06:55 1017 30.03 846 24.98 -4.9 23.1 68 -10 14
07:00 1017 30.03 846 24.98 -4.9 23.1 68 -10 13.9
07:05 1017 30.03 846 24.98 -4.9 23.2 66 -10.3 13.5
07:10 1017 30.03 846 24.98 -4.8 23.3 67 -10.2 13.7
07:15 1017 30.03 846 24.98 -4.8 23.3 67 -10 13.9
07:20 1017 30.03 846 24.98 -4.9 23.3 65 -10.5 13.1
07:25 1017 30.03 846 24.98 -4.5 24 63 -10.5 13.2
07:30 1017 30.03 846 24.98 -4.3 24.3 62 -10.5 13.2
07:35 1017 30.03 846 24.98 -4 24.7 61 -10.6 12.9
07:40 1017 30.03 846 24.98 -4.1 24.6 63 -10.2 13.6
07:45 1017 30.03 846 24.98 -4.5 23.8 64 -10.3 13.4
07:50 1017 30.03 846 24.98 -4.8 23.3 66 -10.3 13.5
07:55 1017 30.03 847 25.01 -5.2 22.6 67 -10.5 13.1
08:00 1017 30.03 847 25.01 -5.4 22.2 67 -10.6 13
08:05 1017 30.03 846 24.98 -5.6 21.9 67 -10.8 12.6
08:10 1017 30.03 847 25.01 -5.7 21.8 67 -10.9 12.5
08:15 1017 30.03 847 25.01 -5.5 22.1 66 -10.9 12.4
08:20 1017 30.03 847 25.01 -5.1 22.8 63 -11 12.1
08:25 1017 30.03 847 25.01 -5.1 22.9 63 -11 12.3
08:30 1017 30.03 847 25.01 -5 23 63 -11 12.2
08:35 1018 30.06 847 25.01 -4.9 23.1 62 -11.2 11.9
08:40 1018 30.06 847 25.01 -5 23 60 -11.5 11.3
08:45 1018 30.06 847 25.01 -5.7 21.7 64 -11.4 11.4
08:50 1018 30.06 847 25.01 -5.6 21.9 61 -11.9 10.6
08:55 1018 30.06 847 25.01 -5.7 21.8 61 -12 10.5
09:00 1018 30.06 847 25.01 -5.6 21.9 62 -11.7 10.9
09:05 1018 30.06 847 25.01 -5.6 21.9 62 -11.8 10.8
09:10 1018 30.06 847 25.01 -5.2 22.6 59 -12 10.4
09:15 1018 30.06 847 25.01 -4.4 24 58 -11.4 11.4
09:20 1018 30.06 847 25.01 -4.2 24.5 58 -11.2 11.8
09:25 1017 30.03 847 25.01 -4.3 24.2 57 -11.6 11.1
09:30 1018 30.06 847 25.01 -4 24.8 56 -11.6 11.1
09:35 1017 30.03 847 25.01 -3.9 24.9 56 -11.6 11.2
09:40 1017 30.03 847 25.01 -3.7 25.4 54 -11.6 11.1
09:45 1017 30.03 847 25.01 -3.3 26.1 52 -11.7 11
09:50 1017 30.03 847 25.01 -3.1 26.4 53 -11.4 11.5
09:55 1017 30.03 847 25.01 -2.8 27 52 -11.4 11.4
10:00 1017 30.03 847 25.01 -2.4 27.8 50 -11.5 11.2
10:05 1017 30.03 847 25.01 -1.9 28.6 49 -11.2 11.8
10:10 1017 30.03 847 25.01 -1.8 28.7 50 -10.9 12.4
10:15 1017 30.03 847 25.01 -2.3 27.8 51 -11.3 11.7
10:20 1017 30.03 847 25.01 -2 28.5 48 -11.6 11.1
10:25 1017 30.03 847 25.01 -1.4 29.5 47 -11.3 11.7
10:30 1017 30.03 847 25.01 -1 30.3 45 -11.4 11.5
10:35 1017 30.03 847 25.01 -0.6 30.9 45 -11.2 11.9
10:40 1017 30.03 847 25.01 -0.9 30.4 46 -11.2 11.8
10:45 1017 30.03 847 25.01 -0.6 30.8 45 -11.2 11.9
10:50 1017 30.03 846 24.98 0 32 42 -11.4 11.5
10:55 1017 30.03 846 24.98 -0.2 31.7 44 -11.1 12
11:00 1017 30.03 846 24.98 -0.4 31.3 44 -11.3 11.7
11:05 1017 30.03 846 24.98 0.1 32.2 43 -11.1 12.1
11:10 1017 30.03 846 24.98 0.2 32.4 43 -10.8 12.6
11:15 1017 30.03 846 24.98 0.5 32.9 43 -10.6 13
11:20 1017 30.03 846 24.98 1.2 34.1 41 -10.6 12.9
11:25 1017 30.03 846 24.98 1.1 34 40 -11.1 12.1
11:30 1017 30.03 846 24.98 0.5 32.9 42 -11 12.1
11:35 1017 30.03 846 24.98 1.4 34.6 38 -11.5 11.4
11:40 1017 30.03 846 24.98 2.5 36.4 35 -11.7 11
11:45 1017 30.03 846 24.98 3 37.4 34 -11.5 11.2
11:50 1017 30.03 846 24.98 3.1 37.7 36 -10.4 13.2
11:55 1017 30.03 846 24.98 2.7 36.8 39 -10 14
12:00 1017 30.03 846 24.98 1.4 34.6 41 -10.3 13.4
12:05 1017 30.03 846 24.98 1.4 34.6 39 -11 12.2
12:10 1016 30 846 24.98 1.9 35.4 39 -10.6 13
12:15 1016 30 846 24.98 1.4 34.4 41 -10.4 13.3
12:20 1016 30 846 24.98 1.5 34.7 40 -10.8 12.6
12:25 1016 30 845 24.95 1.7 35 41 -10.3 13.4
12:30 1016 30 845 24.95 1.6 35 43 -9.7 14.5
12:35 1016 30 845 24.95 1.7 35.1 41 -10.1 13.8
12:40 1016 30 845 24.95 1.9 35.5 41 -9.9 14.3
12:45 1016 30 845 24.95 2.6 36.7 35 -11.4 11.4
12:50 1016 30 845 24.95 3.3 38 35 -10.8 12.5
12:55 1016 30 845 24.95 3.7 38.7 35 -10.5 13.1
13:00 1016 30 845 24.95 3.2 37.8 34 -11 12.1
13:05 1016 30 845 24.95 2.4 36.4 35 -11.4 11.5
13:10 1016 30 845 24.95 2.8 37 34 -11.5 11.2
13:15 1016 30 845 24.95 2.3 36.1 35 -11.8 10.8
13:20 1016 30 845 24.95 3.2 37.8 33 -11.6 11.1
13:25 1016 30 845 24.95 2.6 36.6 38 -10.4 13.3
13:30 1016 30 845 24.95 2.7 36.9 36 -10.9 12.4
13:35 1016 30 845 24.95 2.7 36.9 35 -11.4 11.4
13:40 1016 30 845 24.95 2.2 36 35 -11.9 10.6
13:45 1016 30 845 24.95 3.2 37.8 33 -11.5 11.2
13:50 1015 29.97 845 24.95 3 37.3 34 -11.5 11.2
13:55 1015 29.97 845 24.95 3.2 37.8 34 -11.4 11.6
14:00 1015 29.97 844 24.92 3.3 37.9 34 -11.1 12
14:05 1015 29.97 844 24.92 3.7 38.6 34 -10.7 12.7
14:10 1015 29.97 844 24.92 4 39.2 34 -10.6 12.9
14:15 1015 29.97 844 24.92 3.8 38.9 32 -11.3 11.7
14:20 1015 29.97 844 24.92 2.8 37.1 37 -10.6 12.9
14:25 1015 29.97 844 24.92 1.7 35.1 40 -10.5 13.1
14:30 1015 29.97 844 24.92 1.9 35.4 38 -10.9 12.5
14:35 1015 29.97 844 24.92 1.8 35.2 40 -10.5 13
14:40 1015 29.97 844 24.92 1.5 34.6 38 -11.2 11.8
14:45 1015 29.97 844 24.92 1.5 34.8 40 -10.7 12.8
14:50 1015 29.97 844 24.92 0.7 33.2 41 -11.1 12.1
14:55 1015 29.97 844 24.92 0.7 33.3 41 -11.2 11.8
15:00 1015 29.97 844 24.92 0.8 33.5 41 -11 12.3
15:05 1015 29.97 844 24.92 1.1 34 39 -11.2 11.9
15:10 1015 29.97 844 24.92 1.8 35.2 37 -11.4 11.4
15:15 1015 29.97 844 24.92 2.1 35.9 36 -11.4 11.5
15:20 1014 29.94 844 24.92 2.2 36 35 -11.7 10.9
15:25 1014 29.94 844 24.92 2.5 36.5 35 -11.6 11.1
15:30 1014 29.94 844 24.92 2.9 37.3 34 -11.5 11.3
15:35 1014 29.94 844 24.92 3.2 37.7 33 -11.4 11.4
15:40 1014 29.94 843 24.89 3.2 37.7 33 -11.6 11.2
15:45 1014 29.94 843 24.89 3.2 37.8 34 -11.4 11.5
15:50 1014 29.94 843 24.89 3.3 38 34 -11.1 12
15:55 1014 29.94 843 24.89 3.2 37.8 34 -11.2 11.9
16:00 1014 29.94 843 24.89 2.8 37.1 34 -11.4 11.5
16:05 1014 29.94 843 24.89 2.4 36.3 35 -11.4 11.4
16:10 1014 29.94 843 24.89 2.1 35.8 38 -10.9 12.3
16:15 1014 29.94 843 24.89 1.7 35 39 -10.7 12.7
16:20 1014 29.94 843 24.89 0.6 33 43 -10.5 13.1
16:25 1014 29.94 843 24.89 -0.9 30.4 45 -11.3 11.6
16:30 1014 29.94 843 24.89 -1.1 30 47 -11.1 12.1
16:35 1014 29.94 843 24.89 -0.9 30.3 46 -11.1 12
16:40 1014 29.94 843 24.89 -1.2 29.9 48 -10.9 12.3
16:45 1014 29.94 843 24.89 -1.7 29 49 -10.9 12.3
16:50 1014 29.94 843 24.89 -1.9 28.6 49 -11.1 11.9
16:55 1014 29.94 843 24.89 -2 28.4 50 -11.1 12.1
17:00 1014 29.94 843 24.89 -2.4 27.6 51 -11.3 11.6
17:05 1014 29.94 843 24.89 -2.1 28.1 51 -11.1 12
17:10 1014 29.94 843 24.89 -2.1 28.3 51 -11 12.2
17:15 1014 29.94 843 24.89 -2 28.4 50 -11 12.2
17:20 1014 29.94 843 24.89 -2.7 27.1 55 -10.6 12.8
17:25 1014 29.94 843 24.89 -3 26.6 54 -11 12.1
17:30 1014 29.94 843 24.89 -3 26.5 54 -11 12.2
17:35 1014 29.94 843 24.89 -3.2 26.2 54 -11.4 11.6
17:40 1014 29.94 843 24.89 -3.1 26.3 53 -11.3 11.6
17:45 1014 29.94 843 24.89 -3.4 25.9 55 -11.2 11.9
17:50 1014 29.94 843 24.89 -3.7 25.3 57 -11.1 12
17:55 1014 29.94 843 24.89 -4.1 24.6 56 -11.7 11
18:00 1014 29.94 843 24.89 -4 24.9 56 -11.5 11.4
18:05 1014 29.94 843 24.89 -3.9 25 55 -11.6 11
18:10 1014 29.94 843 24.89 -3.5 25.7 54 -11.5 11.4
18:15 1014 29.94 843 24.89 -3.7 25.4 57 -11 12.1
18:20 1014 29.94 843 24.89 -4.1 24.6 55 -11.8 10.8
18:25 1013 29.91 843 24.89 -3.6 25.6 54 -11.7 11
18:30 1013 29.91 843 24.89 -4 24.8 58 -11 12.2
18:35 1013 29.91 843 24.89 -4.5 24 59 -11.4 11.5
18:40 1013 29.91 842 24.86 -4.4 24 58 -11.5 11.4
18:45 1013 29.91 842 24.86 -4.7 23.6 59 -11.4 11.5
18:50 1013 29.91 842 24.86 -5 23 60 -11.7 10.9
18:55 1013 29.91 842 24.86 -4.8 23.4 57 -11.9 10.5
19:00 1013 29.91 842 24.86 -4.2 24.5 56 -11.7 11
19:05 1013 29.91 842 24.86 -4.4 24.1 58 -11.4 11.4
19:10 1013 29.91 842 24.86 -4.8 23.3 59 -11.6 11.1
19:15 1013 29.91 842 24.86 -5.1 22.9 61 -11.5 11.2
19:20 1013 29.91 842 24.86 -5.1 22.9 61 -11.5 11.3
19:25 1013 29.91 842 24.86 -4.7 23.6 60 -11.4 11.5
19:30 1013 29.91 842 24.86 -4.1 24.6 58 -11.1 12
19:35 1013 29.91 842 24.86 -4 24.9 58 -11.1 12
19:40 1012 29.88 842 24.86 -4 24.8 59 -10.9 12.3
19:45 1012 29.88 842 24.86 -4.3 24.3 60 -10.8 12.5
19:50 1012 29.88 842 24.86 -4.5 24 61 -10.9 12.4
19:55 1012 29.88 842 24.86 -4.5 24 61 -10.9 12.3
20:00 1012 29.88 841 24.83 -4.5 23.8 61 -11 12.2
20:05 1012 29.88 841 24.83 -4.7 23.6 61 -11 12.1
20:10 1012 29.88 841 24.83 -4.6 23.7 61 -11 12.2
20:15 1012 29.88 841 24.83 -4.4 24.1 60 -11 12.2
20:20 1012 29.88 841 24.83 -4.3 24.2 60 -10.9 12.3
20:25 1012 29.88 841 24.83 -4.2 24.4 60 -10.9 12.4
20:30 1012 29.88 841 24.83 -4.4 24.1 61 -10.9 12.5
20:35 1012 29.88 841 24.83 -4.3 24.2 60 -10.9 12.3
20:40 1012 29.88 841 24.83 -4.2 24.4 60 -10.8 12.6
20:45 1011 29.85 841 24.83 -4.5 23.9 61 -10.9 12.4
20:50 1011 29.85 841 24.83 -4.6 23.6 61 -11 12.2
20:55 1011 29.85 841 24.83 -4.6 23.6 61 -11 12.1
21:00 1011 29.85 841 24.83 -4.5 23.8 61 -11 12.1
21:05 1011 29.85 841 24.83 -4.4 24 60 -11 12.2
21:10 1011 29.85 840 24.81 -4.3 24.3 59 -11.1 12.1
21:15 1011 29.85 840 24.81 -4.1 24.5 59 -10.9 12.4
21:20 1011 29.85 840 24.81 -4.3 24.3 60 -11 12.3
21:25 1011 29.85 840 24.81 -4.1 24.7 59 -11.1 12.1
21:30 1011 29.85 840 24.81 -3.9 24.9 58 -11.1 12
21:35 1011 29.85 840 24.81 -3.8 25.2 57 -11 12.2
21:40 1011 29.85 840 24.81 -4 24.8 59 -10.9 12.4
21:45 1011 29.85 840 24.81 -4.4 24 60 -11 12.3
21:50 1011 29.85 840 24.81 -4.6 23.8 60 -11.2 11.9
21:55 1011 29.85 840 24.81 -4.6 23.8 60 -11.3 11.7
22:00 1011 29.85 840 24.81 -4.2 24.4 58 -11.3 11.6
22:05 1011 29.85 840 24.81 -4.1 24.6 58 -11.2 11.9
22:10 1011 29.85 840 24.81 -4.3 24.3 58 -11.3 11.7
22:15 1011 29.85 840 24.81 -4.3 24.2 59 -11.2 11.8
22:20 1011 29.85 840 24.81 -4.5 24 60 -11.1 12
22:25 1011 29.85 840 24.81 -4.4 24.1 59 -11.2 11.9
22:30 1011 29.85 840 24.81 -4.4 24.1 61 -10.9 12.3
22:35 1011 29.85 840 24.81 -4.6 23.8 60 -11.2 11.9
22:40 1011 29.85 840 24.81 -4.5 23.9 60 -11.2 11.9
22:45 1011 29.85 840 24.81 -4.8 23.4 61 -11.2 11.9
22:50 1011 29.85 840 24.81 -4.9 23.1 62 -11.1 12
22:55 1011 29.85 840 24.81 -4.9 23.2 62 -11.1 12
23:00 1011 29.85 840 24.81 -4.6 23.7 61 -11.1 12
23:05 1011 29.85 840 24.81 -4.4 24.1 60 -11 12.1
23:10 1011 29.85 840 24.81 -4.2 24.4 60 -10.9 12.4
23:15 1010 29.83 840 24.81 -4.2 24.4 60 -10.9 12.3
23:20 1010 29.83 839 24.78 -4.2 24.4 60 -10.9 12.4
23:25 1010 29.83 839 24.78 -4.2 24.5 60 -10.8 12.5
23:30 1010 29.83 839 24.78 -4.2 24.4 60 -10.9 12.3
23:35 1010 29.83 839 24.78 -4.3 24.3 61 -10.8 12.5
23:40 1010 29.83 839 24.78 -4.3 24.3 60 -10.9 12.3
23:45 1010 29.83 839 24.78 -4 24.7 59 -10.9 12.3
23:50 1010 29.83 839 24.78 -4 24.7 60 -10.8 12.6
23:55 1010 29.83 839 24.78 -4.3 24.2 61 -10.7 12.7
24:00 1010 29.83 839 24.78 -4.8 23.4 62 -10.9 12.4